KCMY/CMY METAR and TAF weather

Enter ICAO airport designator
Station Type Date Time Source
KCMY METAR 2019/08/19 08:35 UTC NOAA

KCMY 190835Z AUTO 00000KT 10SM OVC001 10/10 A2998 RMK AO2 T01000100


Station Type Date Time Source
KCMY Decoded METAR 2019/08/19 08:35 UTC NOAA

Station name not available
Aug 19, 2019 - 04:35 AM EDT / 2019.08.19 0835 UTC
Wind: Calm:0
Visibility: 10 mile(s):0
Sky conditions: overcast
Temperature: 50.0 F (10.0 C)
Dew Point: 50.0 F (10.0 C)
Relative Humidity: 100%
Pressure (altimeter): 29.98 in. Hg (1015 hPa)
ob: KCMY 190835Z AUTO 00000KT 10SM OVC001 10/10 A2998 RMK AO2 T01000100
cycle: 8

Station Type Date Time Source
KCMY TAF UTC NOAA

Error!

Example: see airport list